Time;durP1;ratioP1;P1;durP2;ratioP2;P2;SDS_P1;SDS_P2;PMS_P1;PMS_P2;Temp;Humidity;BMP_temperature;BMP_pressure;BME280_temperature;BME280_humidity;BME280_pressure;Samples;Min_cycle;Max_cycle;Signal;HPM_P1;HPM_P2
2022/08/03 00:02:19;;;;;;;9.90;3.60;;;;;16.90;97560.60;;;;111053;1247;41533;-67
2022/08/03 00:04:49;;;;;;;8.20;3.30;;;;;16.90;97562.60;;;;111197;1247;42207;-67
2022/08/03 00:07:19;;;;;;;13.40;3.40;;;;;16.80;97565.40;;;;111139;1247;41130;-67
2022/08/03 00:09:49;;;;;;;7.10;3.20;;;;;16.64;97562.80;;;;111096;1247;41254;-66
2022/08/03 00:12:19;;;;;;;7.60;2.70;;;;;16.60;97559.80;;;;111052;1248;41629;-68
2022/08/03 00:14:49;;;;;;;7.90;2.90;;;;;16.50;97558.00;;;;111071;1246;41413;-67
2022/08/03 00:17:18;;;;;;;5.80;2.50;;;;;16.50;97553.40;;;;111106;1246;41266;-67
2022/08/03 00:19:48;;;;;;;4.50;2.20;;;;;16.42;97557.40;;;;111083;1246;41417;-68
2022/08/03 00:22:18;;;;;;;5.20;2.30;;;;;16.40;97555.20;;;;111096;1247;41466;-65
2022/08/03 00:24:48;;;;;;;6.30;2.40;;;;;16.40;97556.80;;;;111115;1247;41255;-66
2022/08/03 00:27:17;;;;;;;6.60;2.40;;;;;16.38;97554.80;;;;111098;1247;42032;-67
2022/08/03 00:29:47;;;;;;;4.90;2.20;;;;;16.30;97545.40;;;;111156;1247;41143;-67
2022/08/03 00:32:27;;;;;;;6.40;2.20;;;;;16.30;97545.40;;;;111190;1247;41250;-66
2022/08/03 00:34:57;;;;;;;7.40;2.30;;;;;16.22;97545.80;;;;111096;1247;41259;-67
2022/08/03 00:37:27;;;;;;;6.20;2.60;;;;;16.20;97552.00;;;;111115;1247;41313;-67
2022/08/03 00:40:11;;;;;;;5.50;2.50;;;;;16.20;97555.20;;;;111143;1247;41248;-67
2022/08/03 00:42:50;;;;;;;6.80;2.40;;;;;16.20;97551.60;;;;111093;1247;41134;-65
2022/08/03 00:45:25;;;;;;;7.00;2.80;;;;;16.20;97551.40;;;;111098;1247;41714;-66
2022/08/03 00:47:55;;;;;;;6.40;2.70;;;;;16.20;97551.60;;;;111097;1247;41987;-67
2022/08/03 00:50:26;;;;;;;;;;;;;16.20;97553.80;;;;111110;1247;41612;-67
2022/08/03 00:52:57;;;;;;;7.70;2.80;;;;;16.10;97550.80;;;;111147;1247;41154;-67
2022/08/03 00:55:27;;;;;;;5.70;2.40;;;;;16.10;97547.80;;;;111024;1247;41269;-66
2022/08/03 00:57:58;;;;;;;5.00;2.20;;;;;16.10;97544.00;;;;111060;1248;41643;-67
2022/08/03 01:00:27;;;;;;;5.80;2.50;;;;;16.04;97549.00;;;;111084;1247;41184;-65
2022/08/03 01:02:57;;;;;;;7.80;2.80;;;;;16.00;97547.80;;;;111172;1248;41251;-67
2022/08/03 01:05:28;;;;;;;10.90;3.70;;;;;16.02;97549.40;;;;111066;1248;41187;-67
2022/08/03 01:08:07;;;;;;;12.30;4.30;;;;;16.00;97553.40;;;;111117;1247;41425;-67
2022/08/03 01:10:49;;;;;;;8.80;3.70;;;;;16.00;97549.40;;;;111107;1247;41644;-67
2022/08/03 01:13:32;;;;;;;7.70;3.40;;;;;15.90;97551.60;;;;111088;1247;41127;-67
2022/08/03 01:16:52;;;;;;;7.80;3.20;;;;;15.84;97553.00;;;;111100;1247;41284;-67
2022/08/03 01:19:42;;;;;;;6.30;2.50;;;;;15.80;97551.60;;;;110477;1248;807504;-67
2022/08/03 01:22:48;;;;;;;4.50;2.20;;;;;15.70;97551.00;;;;110818;1248;41722;-67
2022/08/03 01:25:38;;;;;;;5.90;2.10;;;;;15.70;97544.00;;;;111153;1247;41953;-67
2022/08/03 01:28:08;;;;;;;5.10;2.40;;;;;15.60;97548.20;;;;111087;1247;41150;-67
2022/08/03 01:30:43;;;;;;;6.00;2.60;;;;;15.60;97544.20;;;;111162;1248;41187;-68
2022/08/03 01:33:19;;;;;;;8.50;3.20;;;;;15.60;97541.60;;;;111144;1247;41601;-66
2022/08/03 01:35:59;;;;;;;14.10;3.50;;;;;15.60;97544.60;;;;111098;1247;41493;-65
2022/08/03 01:38:40;;;;;;;7.80;3.60;;;;;15.60;97548.80;;;;111063;1247;42051;-67
2022/08/03 01:41:14;;;;;;;8.60;2.90;;;;;15.60;97550.00;;;;111031;1247;42831;-67
2022/08/03 01:43:49;;;;;;;5.70;2.60;;;;;15.60;97550.00;;;;111090;1247;41156;-67
2022/08/03 01:46:41;;;;;;;6.50;2.50;;;;;15.50;97549.60;;;;111003;1247;41980;-67
2022/08/03 01:49:16;;;;;;;7.90;3.30;;;;;15.50;97544.80;;;;111074;1247;41387;-66
2022/08/03 01:51:49;;;;;;;7.30;2.90;;;;;15.40;97547.20;;;;111187;1248;42369;-67
2022/08/03 01:54:37;;;;;;;6.40;2.80;;;;;15.40;97546.20;;;;111058;1246;41820;-67
2022/08/03 01:57:10;;;;;;;6.60;2.70;;;;;15.40;97551.60;;;;111087;1247;41261;-67
2022/08/03 01:59:42;;;;;;;8.00;3.80;;;;;15.30;97551.20;;;;111124;1247;42125;-66
2022/08/03 02:02:13;;;;;;;8.40;3.30;;;;;15.30;97545.20;;;;111184;1247;41124;-66
2022/08/03 02:05:05;;;;;;;8.70;3.80;;;;;15.30;97547.20;;;;111074;1247;41149;-67
2022/08/03 02:07:40;;;;;;;8.20;3.50;;;;;15.20;97551.00;;;;111111;1247;41912;-67
2022/08/03 02:10:12;;;;;;;11.40;4.20;;;;;15.20;97547.00;;;;111078;1247;41773;-67
2022/08/03 02:12:46;;;;;;;12.60;5.10;;;;;15.10;97549.80;;;;111083;1247;42377;-67
2022/08/03 02:15:21;;;;;;;10.00;4.60;;;;;15.10;97548.00;;;;111099;1247;41260;-68
2022/08/03 02:17:52;;;;;;;10.30;4.30;;;;;15.10;97546.80;;;;111178;1247;41154;-66
2022/08/03 02:20:21;;;;;;;10.20;4.40;;;;;15.10;97549.20;;;;111118;1247;41248;-65
2022/08/03 02:22:51;;;;;;;8.80;4.00;;;;;15.04;97545.80;;;;111048;1248;41138;-68
2022/08/03 02:25:22;;;;;;;9.00;4.10;;;;;15.00;97546.60;;;;111141;1247;41247;-66
2022/08/03 02:27:58;;;;;;;10.80;4.30;;;;;14.90;97541.60;;;;111077;1248;41261;-66
2022/08/03 02:30:37;;;;;;;12.60;4.40;;;;;14.84;97541.20;;;;111021;1249;41377;-66
2022/08/03 02:33:11;;;;;;;9.60;5.00;;;;;14.80;97539.40;;;;111176;1248;41255;-66
2022/08/03 02:35:41;;;;;;;10.50;4.90;;;;;14.70;97541.00;;;;111083;1247;41151;-67
2022/08/03 02:38:13;;;;;;;11.50;4.10;;;;;14.70;97545.20;;;;111135;1248;41670;-67
2022/08/03 02:40:44;;;;;;;10.20;3.70;;;;;14.70;97545.80;;;;111044;1247;42164;-66
2022/08/03 02:43:19;;;;;;;10.50;3.60;;;;;14.76;97542.40;;;;111128;1247;41139;-66
2022/08/03 02:45:50;;;;;;;9.80;4.30;;;;;14.76;97540.00;;;;111104;1247;41501;-66
2022/08/03 02:48:22;;;;;;;6.50;2.80;;;;;14.80;97542.20;;;;111139;1247;41159;-67
2022/08/03 02:50:54;;;;;;;9.00;4.30;;;;;14.80;97546.60;;;;111055;1249;41175;-67
2022/08/03 02:53:24;;;;;;;8.10;3.90;;;;;14.70;97547.20;;;;111152;1248;42186;-66
2022/08/03 02:55:55;;;;;;;11.90;4.00;;;;;14.70;97546.20;;;;111060;1247;41558;-66
2022/08/03 02:58:25;;;;;;;9.80;3.80;;;;;14.70;97551.60;;;;111142;1247;41145;-66
2022/08/03 03:00:56;;;;;;;8.60;3.10;;;;;14.70;97551.60;;;;111123;1247;42385;-66
2022/08/03 03:03:26;;;;;;;7.10;3.10;;;;;14.60;97553.60;;;;111022;1247;41260;-67
2022/08/03 03:05:56;;;;;;;7.00;3.10;;;;;14.60;97552.20;;;;111260;1247;41455;-66
2022/08/03 03:08:27;;;;;;;6.70;2.50;;;;;14.56;97549.40;;;;111263;1247;41139;-66
2022/08/03 03:10:58;;;;;;;;;;;;;14.50;97551.00;;;;111097;1247;41753;-66
2022/08/03 03:13:29;;;;;;;5.80;2.40;;;;;14.50;97552.80;;;;111086;1247;41149;-66
2022/08/03 03:16:00;;;;;;;;;;;;;14.50;97559.00;;;;111229;1246;41162;-64
2022/08/03 03:18:31;;;;;;;7.30;3.10;;;;;14.50;97559.40;;;;111125;1247;41267;-66
2022/08/03 03:21:03;;;;;;;7.90;2.70;;;;;14.50;97561.80;;;;111118;1247;41256;-66
2022/08/03 03:23:36;;;;;;;5.50;2.60;;;;;14.50;97564.80;;;;111131;1247;41144;-67
2022/08/03 03:26:07;;;;;;;6.70;2.60;;;;;14.50;97565.20;;;;111058;1247;41312;-65
2022/08/03 03:28:38;;;;;;;5.70;2.50;;;;;14.50;97564.60;;;;111189;1247;41134;-66
2022/08/03 03:31:09;;;;;;;8.50;3.60;;;;;14.54;97564.40;;;;111170;1248;41257;-66
2022/08/03 03:33:38;;;;;;;8.80;3.80;;;;;14.52;97567.80;;;;111086;1247;41256;-66
2022/08/03 03:36:09;;;;;;;8.10;3.70;;;;;14.50;97571.80;;;;111089;1247;41141;-65
2022/08/03 03:38:38;;;;;;;8.10;3.50;;;;;14.50;97571.40;;;;111117;1247;41136;-68
2022/08/03 03:41:08;;;;;;;9.40;3.70;;;;;14.58;97569.00;;;;111211;1247;41612;-67
2022/08/03 03:43:39;;;;;;;13.00;4.20;;;;;14.60;97576.20;;;;111166;1247;41124;-65
2022/08/03 03:46:11;;;;;;;9.90;3.80;;;;;14.60;97577.20;;;;111231;1248;41307;-66
2022/08/03 03:48:40;;;;;;;7.30;3.10;;;;;14.60;97574.60;;;;111190;1247;41249;-65
2022/08/03 03:51:11;;;;;;;8.90;4.00;;;;;14.70;97581.40;;;;111188;1247;41849;-66
2022/08/03 03:53:41;;;;;;;10.10;3.90;;;;;14.70;97578.20;;;;111132;1247;41233;-65
2022/08/03 03:56:10;;;;;;;7.20;3.20;;;;;14.80;97580.60;;;;111162;1248;41263;-65
2022/08/03 03:58:40;;;;;;;8.00;3.50;;;;;14.80;97579.20;;;;111146;1247;41149;-66
2022/08/03 04:01:09;;;;;;;7.00;3.30;;;;;14.86;97581.20;;;;111144;1248;42091;-68
2022/08/03 04:03:39;;;;;;;9.00;3.10;;;;;14.90;97584.00;;;;111119;1248;41271;-67
2022/08/03 04:11:53;;;;;;;7.40;2.60;;;;;15.72;97597.20;;;;111085;1247;41707;-68
2022/08/03 04:14:30;;;;;;;6.30;2.60;;;;;16.20;97600.40;;;;111157;1247;41146;-66
2022/08/03 04:17:04;;;;;;;6.80;2.70;;;;;16.68;97595.20;;;;111207;1248;42582;-67
2022/08/03 04:19:47;;;;;;;7.60;3.30;;;;;17.20;97593.00;;;;111147;1246;41123;-67
2022/08/03 04:22:23;;;;;;;8.90;3.50;;;;;17.70;97593.40;;;;111310;1247;41253;-67
2022/08/03 04:24:59;;;;;;;10.50;4.40;;;;;18.10;97596.20;;;;111218;1247;41196;-68
2022/08/03 04:27:32;;;;;;;8.50;3.00;;;;;18.42;97593.40;;;;111229;1247;41681;-67
2022/08/03 04:30:04;;;;;;;7.80;3.50;;;;;18.86;97593.60;;;;111287;1247;41217;-67
2022/08/03 04:32:34;;;;;;;8.00;3.00;;;;;19.34;97593.20;;;;111115;1247;41127;-67
2022/08/03 04:35:04;;;;;;;9.60;3.80;;;;;19.90;97589.60;;;;111187;1247;41184;-67
2022/08/03 04:37:46;;;;;;;12.50;3.80;;;;;20.40;97579.80;;;;111144;1247;43784;-66
2022/08/03 04:40:21;;;;;;;9.90;3.50;;;;;20.50;97571.60;;;;111215;1247;41259;-67
2022/08/03 04:42:53;;;;;;;7.80;2.80;;;;;20.90;97567.00;;;;111170;1247;41255;-68
2022/08/03 04:45:23;;;;;;;7.10;3.20;;;;;21.48;97562.00;;;;111287;1247;41172;-66
2022/08/03 04:47:53;;;;;;;7.10;2.70;;;;;22.00;97556.60;;;;111103;1246;41151;-67
2022/08/03 04:50:22;;;;;;;6.10;2.60;;;;;22.54;97555.60;;;;111038;1249;42447;-65
2022/08/03 04:53:07;;;;;;;6.50;2.70;;;;;23.18;97553.80;;;;111162;1246;42096;-67
2022/08/03 04:55:36;;;;;;;6.30;2.70;;;;;23.60;97551.60;;;;111228;1249;41151;-67
2022/08/03 04:58:06;;;;;;;5.20;2.10;;;;;24.10;97555.80;;;;111166;1248;41962;-67
2022/08/03 05:00:35;;;;;;;6.60;2.80;;;;;24.50;97552.20;;;;111148;1246;41209;-66
2022/08/03 05:03:04;;;;;;;8.20;2.80;;;;;24.64;97549.00;;;;111206;1247;41153;-67
2022/08/03 05:05:54;;;;;;;6.50;3.00;;;;;24.80;97548.20;;;;111249;1248;41156;-67
2022/08/03 05:08:29;;;;;;;7.20;3.00;;;;;24.80;97554.20;;;;111140;1248;41251;-67
2022/08/03 05:10:58;;;;;;;6.60;2.80;;;;;24.90;97557.60;;;;110947;1250;41216;-67
2022/08/03 05:13:27;;;;;;;8.10;2.80;;;;;24.86;97556.20;;;;111158;1248;41197;-67
2022/08/03 05:15:56;;;;;;;6.20;2.50;;;;;24.90;97557.20;;;;111196;1247;41136;-68
2022/08/03 05:18:25;;;;;;;7.10;2.70;;;;;25.30;97558.20;;;;111144;1248;41365;-69
2022/08/03 05:20:54;;;;;;;5.20;2.20;;;;;25.70;97560.60;;;;111141;1249;41121;-69
2022/08/03 05:23:23;;;;;;;6.20;2.30;;;;;26.10;97562.40;;;;111140;1248;41243;-67
2022/08/03 05:25:52;;;;;;;5.80;2.20;;;;;26.50;97565.00;;;;111171;1247;41601;-68
2022/08/03 05:28:21;;;;;;;5.10;2.20;;;;;26.80;97563.40;;;;111290;1247;41122;-68
2022/08/03 05:30:50;;;;;;;4.30;2.10;;;;;27.10;97567.40;;;;111159;1247;41170;-69
2022/08/03 05:33:20;;;;;;;7.20;2.30;;;;;27.40;97569.60;;;;111314;1247;41136;-67
2022/08/03 05:35:49;;;;;;;6.50;2.20;;;;;27.70;97570.20;;;;111204;1247;41137;-69
2022/08/03 05:38:30;;;;;;;;;;;;;27.90;97570.60;;;;111176;1248;42644;-69
2022/08/03 05:41:03;;;;;;;4.30;2.00;;;;;27.88;97573.80;;;;111183;1247;41150;-69
2022/08/03 05:43:52;;;;;;;5.20;2.20;;;;;27.90;97575.40;;;;110819;1248;41260;-70
2022/08/03 05:46:24;;;;;;;7.60;2.50;;;;;28.10;97578.60;;;;111246;1247;42027;-69
2022/08/03 05:48:53;;;;;;;5.40;2.10;;;;;27.96;97579.20;;;;111125;1248;41632;-69
2022/08/03 05:51:22;;;;;;;4.60;2.00;;;;;27.72;97583.40;;;;110795;1249;41618;-68
2022/08/03 05:53:51;;;;;;;4.00;2.00;;;;;27.90;97588.80;;;;111141;1247;41945;-67
2022/08/03 05:56:26;;;;;;;4.10;2.00;;;;;28.10;97596.80;;;;110981;1249;41615;-69
2022/08/03 05:58:55;;;;;;;6.80;2.10;;;;;28.30;97596.00;;;;111081;1247;41615;-69
2022/08/03 06:01:24;;;;;;;6.10;2.10;;;;;28.54;97598.00;;;;111074;1248;41279;-69
2022/08/03 06:03:53;;;;;;;6.40;2.30;;;;;28.54;97600.40;;;;111083;1247;41165;-68
2022/08/03 06:06:23;;;;;;;4.70;1.90;;;;;28.60;97606.20;;;;111127;1247;42362;-68
2022/08/03 06:08:53;;;;;;;6.00;2.30;;;;;28.68;97606.00;;;;111018;1249;41256;-68
2022/08/03 06:11:23;;;;;;;5.40;2.20;;;;;28.64;97601.40;;;;111050;1248;41273;-67
2022/08/03 06:13:52;;;;;;;3.80;1.80;;;;;28.24;97610.00;;;;110961;1247;42237;-68
2022/08/03 06:16:21;;;;;;;5.60;2.40;;;;;28.30;97614.20;;;;110629;1250;41601;-68
2022/08/03 06:18:50;;;;;;;4.00;1.90;;;;;28.60;97610.40;;;;111152;1247;41838;-68
2022/08/03 06:21:19;;;;;;;4.60;2.00;;;;;28.50;97613.40;;;;111191;1248;42425;-68
2022/08/03 06:23:48;;;;;;;4.00;1.70;;;;;28.54;97615.60;;;;111241;1248;41193;-68
2022/08/03 06:26:21;;;;;;;5.10;1.80;;;;;28.90;97615.60;;;;111088;1248;41265;-68
2022/08/03 06:28:50;;;;;;;6.10;2.20;;;;;29.30;97618.80;;;;111119;1247;41153;-68
2022/08/03 06:31:26;;;;;;;4.20;1.90;;;;;29.60;97613.20;;;;111015;1249;41285;-68
2022/08/03 06:34:03;;;;;;;4.40;1.90;;;;;29.80;97615.80;;;;111134;1247;41614;-67
2022/08/03 06:36:53;;;;;;;6.60;1.90;;;;;29.56;97620.20;;;;111116;1248;41154;-69
2022/08/03 06:39:29;;;;;;;5.50;2.10;;;;;30.10;97616.40;;;;111064;1247;41584;-69
2022/08/03 06:41:57;;;;;;;9.10;2.60;;;;;30.50;97612.00;;;;111060;1247;41111;-70
2022/08/03 06:44:27;;;;;;;8.50;2.40;;;;;30.56;97614.40;;;;111058;1247;41152;-69
2022/08/03 06:46:57;;;;;;;7.20;2.50;;;;;30.50;97617.40;;;;111055;1249;41545;-70
2022/08/03 06:49:27;;;;;;;4.60;2.10;;;;;30.50;97612.40;;;;111075;1247;41143;-70
2022/08/03 06:51:56;;;;;;;6.80;2.70;;;;;30.74;97614.80;;;;111079;1247;42125;-69
2022/08/03 06:54:35;;;;;;;4.60;1.90;;;;;30.76;97615.00;;;;111092;1248;41236;-69
2022/08/03 06:57:05;;;;;;;4.10;1.80;;;;;31.00;97618.60;;;;111078;1247;41149;-69
2022/08/03 06:59:35;;;;;;;5.40;2.10;;;;;31.54;97612.40;;;;111252;1247;41585;-70
2022/08/03 07:02:25;;;;;;;;;;;;;32.06;97608.40;;;;111300;1248;41258;-70
2022/08/03 07:04:56;;;;;;;7.20;2.90;;;;;32.10;97608.40;;;;111299;1247;41148;-69
2022/08/03 07:07:25;;;;;;;5.10;2.00;;;;;31.84;97605.20;;;;111147;1247;41608;-69
2022/08/03 07:09:54;;;;;;;5.20;2.20;;;;;32.34;97606.00;;;;111126;1247;41151;-70
2022/08/03 07:12:28;;;;;;;5.90;2.00;;;;;32.80;97603.00;;;;111155;1247;41259;-69
2022/08/03 07:14:59;;;;;;;8.50;2.40;;;;;32.70;97602.00;;;;111146;1248;41158;-69
2022/08/03 07:17:32;;;;;;;9.00;3.00;;;;;32.60;97598.20;;;;111210;1248;41255;-69
2022/08/03 07:20:04;;;;;;;8.30;3.50;;;;;31.86;97597.80;;;;111248;1249;41145;-70
2022/08/03 07:22:34;;;;;;;10.70;4.30;;;;;31.60;97599.80;;;;111180;1247;41451;-69
2022/08/03 07:25:03;;;;;;;10.20;3.30;;;;;31.00;97601.60;;;;111150;1247;41619;-70
2022/08/03 07:27:32;;;;;;;8.50;3.40;;;;;31.10;97597.40;;;;111187;1248;42215;-69
2022/08/03 07:30:06;;;;;;;9.30;3.70;;;;;30.12;97600.40;;;;111205;1247;41149;-69
2022/08/03 07:32:35;;;;;;;8.30;2.90;;;;;29.28;97600.60;;;;111142;1247;41257;-69
2022/08/03 07:35:06;;;;;;;7.50;3.20;;;;;28.72;97600.60;;;;111136;1247;41199;-69
2022/08/03 07:37:36;;;;;;;6.90;2.80;;;;;28.10;97606.00;;;;111300;1247;41143;-68
2022/08/03 07:40:05;;;;;;;8.10;2.70;;;;;27.80;97610.20;;;;111408;1247;41148;-70
2022/08/03 07:42:34;;;;;;;6.30;2.70;;;;;27.54;97616.80;;;;111097;1247;41344;-69
2022/08/03 07:45:03;;;;;;;5.20;2.30;;;;;27.28;97617.40;;;;111152;1247;41159;-67
2022/08/03 07:47:32;;;;;;;5.50;2.40;;;;;27.40;97619.60;;;;110970;1248;41551;-70
2022/08/03 07:50:05;;;;;;;7.00;2.30;;;;;27.58;97624.60;;;;111164;1247;41242;-70
2022/08/03 07:52:48;;;;;;;4.00;2.10;;;;;27.80;97620.80;;;;111142;1247;41161;-70
2022/08/03 07:55:21;;;;;;;4.60;2.10;;;;;28.20;97622.60;;;;111297;1247;41142;-73
2022/08/03 07:58:06;;;;;;;5.50;2.20;;;;;28.66;97619.40;;;;111218;1248;41174;-71
2022/08/03 08:00:35;;;;;;;4.50;2.10;;;;;28.88;97623.80;;;;111173;1247;41254;-72
2022/08/03 08:03:04;;;;;;;5.40;2.00;;;;;29.26;97626.40;;;;111209;1247;41873;-73
2022/08/03 08:05:33;;;;;;;4.60;2.10;;;;;29.40;97624.20;;;;111332;1248;41136;-73
2022/08/03 08:08:03;;;;;;;5.60;2.20;;;;;29.80;97622.40;;;;111205;1248;41608;-73
2022/08/03 08:10:33;;;;;;;5.10;2.10;;;;;30.00;97617.60;;;;111187;1247;42065;-71
2022/08/03 08:13:05;;;;;;;5.10;2.00;;;;;30.30;97614.60;;;;111151;1249;41173;-72
2022/08/03 08:15:34;;;;;;;4.40;2.10;;;;;30.60;97613.80;;;;111211;1247;41719;-73
2022/08/03 08:18:02;;;;;;;3.40;1.80;;;;;30.96;97608.20;;;;111108;1249;41723;-73
2022/08/03 08:20:33;;;;;;;4.10;1.80;;;;;31.30;97610.40;;;;111072;1247;41258;-73
2022/08/03 08:23:07;;;;;;;4.80;2.00;;;;;31.64;97604.60;;;;111125;1248;41478;-72
2022/08/03 08:25:56;;;;;;;3.60;1.70;;;;;31.80;97603.40;;;;111154;1249;41646;-73
2022/08/03 08:28:25;;;;;;;4.20;1.90;;;;;32.10;97603.60;;;;111529;1247;41245;-73
2022/08/03 08:31:01;;;;;;;4.30;2.00;;;;;32.40;97599.20;;;;111154;1248;41258;-73
2022/08/03 08:33:30;;;;;;;4.00;1.90;;;;;32.60;97601.80;;;;111116;1247;41154;-72
2022/08/03 08:36:18;;;;;;;3.80;1.90;;;;;32.84;97604.20;;;;111196;1250;41772;-73
2022/08/03 08:38:47;;;;;;;4.40;2.10;;;;;33.10;97602.80;;;;111010;1249;42583;-72
2022/08/03 08:41:18;;;;;;;5.00;2.20;;;;;33.60;97599.80;;;;111052;1250;41131;-72
2022/08/03 08:43:47;;;;;;;5.30;2.10;;;;;33.98;97596.60;;;;110754;1251;41156;-73
2022/08/03 08:46:17;;;;;;;5.90;2.20;;;;;34.20;97596.80;;;;111044;1247;41766;-72
2022/08/03 08:48:52;;;;;;;4.10;1.90;;;;;34.58;97596.00;;;;111059;1247;41160;-72
2022/08/03 08:51:27;;;;;;;4.20;1.80;;;;;35.06;97595.60;;;;111265;1248;41581;-73
2022/08/03 08:54:18;;;;;;;5.30;2.20;;;;;35.44;97594.60;;;;110991;1250;41630;-71
2022/08/03 08:56:49;;;;;;;5.80;1.90;;;;;35.92;97589.80;;;;110730;1250;41182;-72
2022/08/03 08:59:19;;;;;;;3.70;1.90;;;;;36.40;97590.80;;;;111126;1249;41261;-72
2022/08/03 09:01:48;;;;;;;4.20;1.90;;;;;37.02;97588.00;;;;111097;1248;41280;-73
2022/08/03 09:04:17;;;;;;;5.10;2.00;;;;;37.68;97587.40;;;;111020;1250;41149;-73
2022/08/03 09:06:47;;;;;;;4.40;2.00;;;;;37.90;97596.60;;;;111150;1248;41438;-73
2022/08/03 09:09:35;;;;;;;8.10;2.10;;;;;38.30;97594.40;;;;111286;1248;41795;-73
2022/08/03 09:12:26;;;;;;;4.20;1.90;;;;;38.50;97592.80;;;;111158;1248;41121;-73
2022/08/03 09:15:20;;;;;;;5.20;2.00;;;;;38.80;97587.00;;;;111163;1249;41123;-73
2022/08/03 09:17:58;;;;;;;3.50;1.80;;;;;38.80;97589.60;;;;111102;1249;41924;-74
2022/08/03 09:20:29;;;;;;;5.60;2.20;;;;;38.76;97586.40;;;;111070;1248;41652;-74
2022/08/03 09:23:00;;;;;;;4.90;2.20;;;;;38.64;97582.80;;;;111186;1248;41150;-74
2022/08/03 09:25:41;;;;;;;4.30;1.60;;;;;38.30;97581.20;;;;111181;1248;41150;-73
2022/08/03 09:28:15;;;;;;;3.60;1.80;;;;;38.28;97579.20;;;;111213;1247;41663;-74
2022/08/03 09:31:08;;;;;;;4.60;1.60;;;;;38.28;97584.40;;;;111319;1247;41727;-75
2022/08/03 09:33:50;;;;;;;7.30;1.80;;;;;38.42;97584.60;;;;111101;1250;41171;-74
2022/08/03 09:36:37;;;;;;;4.40;1.90;;;;;38.40;97584.20;;;;110977;1250;41372;-75
2022/08/03 09:39:16;;;;;;;3.40;1.70;;;;;38.40;97583.40;;;;111075;1250;41779;-74
2022/08/03 09:42:26;;;;;;;2.80;1.70;;;;;38.46;97579.20;;;;110986;1250;41366;-73
2022/08/03 09:45:07;;;;;;;4.10;1.80;;;;;38.50;97585.00;;;;110941;1249;41455;-74
2022/08/03 09:47:40;;;;;;;5.00;1.90;;;;;38.72;97577.80;;;;111000;1249;41258;-71
2022/08/03 09:50:17;;;;;;;5.90;2.00;;;;;38.70;97575.20;;;;111231;1247;41144;-73
2022/08/03 09:52:51;;;;;;;5.00;1.70;;;;;38.78;97574.20;;;;111096;1249;41155;-73
2022/08/03 09:55:31;;;;;;;4.90;2.00;;;;;38.80;97571.00;;;;111168;1249;41191;-75
2022/08/03 09:58:27;;;;;;;4.90;1.80;;;;;38.86;97562.20;;;;110864;1250;41189;-73
2022/08/03 10:01:04;;;;;;;4.00;1.80;;;;;38.70;97567.00;;;;111186;1248;40915;-71
2022/08/03 10:03:39;;;;;;;4.10;1.80;;;;;39.04;97562.00;;;;111190;1248;41000;-76
2022/08/03 10:06:32;;;;;;;3.40;1.70;;;;;39.20;97561.40;;;;110998;1248;41159;-76
2022/08/03 10:09:14;;;;;;;3.80;1.60;;;;;39.30;97562.00;;;;110994;1249;41305;-73
2022/08/03 10:11:45;;;;;;;3.00;1.50;;;;;39.46;97559.20;;;;111205;1247;42387;-73
2022/08/03 10:14:18;;;;;;;2.80;1.60;;;;;39.84;97557.40;;;;111284;1248;41442;-75
2022/08/03 10:16:48;;;;;;;3.00;1.50;;;;;40.22;97557.40;;;;111176;1250;41619;-74
2022/08/03 10:19:19;;;;;;;4.40;1.50;;;;;40.10;97561.20;;;;111216;1249;41298;-73
2022/08/03 10:21:54;;;;;;;3.00;1.60;;;;;39.82;97551.80;;;;110760;1250;41326;-73
2022/08/03 10:24:27;;;;;;;2.20;1.30;;;;;39.00;97559.60;;;;110758;1249;41146;-73
2022/08/03 10:27:05;;;;;;;3.70;1.50;;;;;39.00;97557.60;;;;110913;1250;41752;-74
2022/08/03 10:29:43;;;;;;;3.10;1.50;;;;;38.98;97564.00;;;;110972;1249;41138;-73
2022/08/03 10:32:27;;;;;;;2.20;1.40;;;;;38.88;97561.80;;;;111209;1247;41245;-74
2022/08/03 10:35:18;;;;;;;3.10;1.40;;;;;38.60;97561.60;;;;111024;1248;41146;-74
2022/08/03 10:37:59;;;;;;;2.00;1.30;;;;;38.70;97561.60;;;;111004;1250;41261;-74
2022/08/03 10:40:32;;;;;;;2.40;1.50;;;;;38.70;97557.60;;;;110959;1250;42492;-74
2022/08/03 10:43:26;;;;;;;4.80;1.90;;;;;38.98;97550.40;;;;111279;1248;41551;-74
2022/08/03 10:45:58;;;;;;;5.50;1.90;;;;;39.02;97545.00;;;;110806;1250;41158;-74
2022/08/03 10:48:34;;;;;;;3.80;1.70;;;;;38.80;97546.80;;;;110922;1250;41860;-74
2022/08/03 10:51:05;;;;;;;2.30;1.40;;;;;38.60;97551.80;;;;110844;1250;41716;-74
2022/08/03 10:53:44;;;;;;;3.50;1.50;;;;;38.30;97555.80;;;;111102;1249;41595;-74
2022/08/03 10:59:49;;;;;;;3.10;1.30;;;;;38.20;97548.20;;;;111009;1250;41193;-76
2022/08/03 11:02:22;;;;;;;2.10;1.30;;;;;37.92;97545.80;;;;111067;1249;41226;-75
2022/08/03 11:05:27;;;;;;;2.30;1.30;;;;;37.68;97549.80;;;;111167;1248;41178;-75
2022/08/03 11:08:21;;;;;;;3.30;1.50;;;;;37.98;97540.20;;;;111001;1249;41612;-74
2022/08/03 11:10:57;;;;;;;2.70;1.40;;;;;38.54;97543.60;;;;111209;1247;42153;-73
2022/08/03 11:13:32;;;;;;;2.70;1.30;;;;;39.16;97532.80;;;;110952;1248;41263;-75
2022/08/03 11:16:19;;;;;;;2.20;1.30;;;;;39.84;97529.40;;;;111241;1248;41217;-75
2022/08/03 11:19:07;;;;;;;5.90;1.40;;;;;40.84;97525.80;;;;110788;1250;41159;-72
2022/08/03 11:22:00;;;;;;;3.00;1.30;;;;;41.74;97520.20;;;;110671;1250;41268;-73
2022/08/03 11:24:36;;;;;;;2.50;1.30;;;;;42.34;97509.60;;;;111403;1248;41270;-75
2022/08/03 11:27:30;;;;;;;2.30;1.30;;;;;42.44;97513.00;;;;111209;1248;41135;-76
2022/08/03 11:30:21;;;;;;;1.50;1.10;;;;;43.00;97505.80;;;;111096;1248;41156;-74
2022/08/03 11:32:58;;;;;;;2.00;1.20;;;;;43.52;97504.20;;;;111324;1248;41655;-76
2022/08/03 11:35:55;;;;;;;1.90;1.30;;;;;43.76;97498.60;;;;111312;1249;41257;-77
2022/08/03 11:38:26;;;;;;;2.40;1.30;;;;;43.72;97494.40;;;;111002;1247;41269;-75
2022/08/03 11:40:55;;;;;;;1.50;1.10;;;;;43.52;97495.40;;;;111247;1248;41571;-72
2022/08/03 11:43:29;;;;;;;;;;;;;43.58;97493.60;;;;111195;1248;41147;-73
2022/08/03 11:46:16;;;;;;;3.60;1.30;;;;;43.68;97489.00;;;;111301;1247;41165;-74
2022/08/03 11:48:48;;;;;;;1.40;1.10;;;;;43.90;97486.40;;;;111275;1248;41139;-76
2022/08/03 11:51:28;;;;;;;1.90;1.10;;;;;44.38;97479.80;;;;111088;1248;41214;-76
2022/08/03 11:54:01;;;;;;;2.30;1.30;;;;;44.94;97480.00;;;;111190;1247;41395;-76
2022/08/03 11:56:46;;;;;;;5.00;1.40;;;;;44.68;97477.80;;;;111094;1249;41695;-76
2022/08/03 11:59:17;;;;;;;2.00;1.10;;;;;44.20;97478.00;;;;111070;1248;41135;-76
2022/08/03 12:01:49;;;;;;;2.60;1.30;;;;;44.38;97479.40;;;;111119;1248;42378;-76
2022/08/03 12:04:18;;;;;;;2.40;1.40;;;;;44.58;97477.20;;;;110878;1249;41585;-76
2022/08/03 12:07:00;;;;;;;2.40;1.30;;;;;44.68;97475.20;;;;110824;1251;41608;-76
2022/08/03 12:09:29;;;;;;;1.60;0.90;;;;;44.66;97470.20;;;;111174;1248;41251;-74
2022/08/03 12:11:58;;;;;;;2.00;1.10;;;;;44.90;97472.40;;;;111314;1250;41140;-76
2022/08/03 12:14:29;;;;;;;1.60;1.10;;;;;45.10;97473.80;;;;110827;1250;41263;-73
2022/08/03 12:17:19;;;;;;;2.70;1.30;;;;;44.96;97471.00;;;;111058;1249;42193;-74
2022/08/03 12:19:50;;;;;;;2.20;1.40;;;;;44.60;97470.60;;;;110923;1251;41391;-74
2022/08/03 12:22:37;;;;;;;2.00;1.40;;;;;44.30;97473.00;;;;110998;1250;41139;-75
2022/08/03 12:25:07;;;;;;;2.00;1.20;;;;;44.04;97474.00;;;;111223;1250;41733;-73
2022/08/03 12:27:37;;;;;;;1.40;1.20;;;;;43.68;97472.20;;;;110996;1250;42010;-75
2022/08/03 12:30:08;;;;;;;3.30;1.20;;;;;43.78;97465.60;;;;110907;1250;41247;-73
2022/08/03 12:32:37;;;;;;;2.00;1.20;;;;;43.82;97463.20;;;;110994;1248;41619;-76
2022/08/03 12:35:10;;;;;;;2.10;1.10;;;;;43.78;97463.00;;;;110906;1250;41557;-76
2022/08/03 12:37:51;;;;;;;2.20;1.20;;;;;43.56;97464.60;;;;110726;1253;41594;-76
2022/08/03 12:40:29;;;;;;;1.50;1.10;;;;;43.18;97461.80;;;;110683;1251;41153;-76
2022/08/03 12:43:14;;;;;;;2.50;1.20;;;;;42.40;97465.20;;;;110764;1251;41131;-74
2022/08/03 12:45:44;;;;;;;3.00;1.30;;;;;41.34;97469.80;;;;110754;1251;41146;-74
2022/08/03 12:48:16;;;;;;;1.60;1.30;;;;;40.34;97470.00;;;;110858;1250;41897;-75
2022/08/03 12:50:49;;;;;;;2.70;1.30;;;;;39.34;97473.40;;;;110909;1251;41374;-73
2022/08/03 12:53:29;;;;;;;1.80;1.20;;;;;38.60;97474.40;;;;110840;1251;41714;-73
2022/08/03 12:56:04;;;;;;;3.00;1.20;;;;;37.96;97470.00;;;;111068;1251;41270;-75